Аэропорт
Алматы (UAAA)

 UAAA / ALA
ЗЦ Центральная Азия
Алматы (UAAA)
Алматы (UAAA)
 43.35210, 77.04050  / 2234 ft

 UAAA 251200Z 06003MPS 030V100 9999 FEW050 28/10 Q1014 R05R/CLRD65 NOSIG
 TAF UAAA 250500Z 2506/2606 04004MPS 9999 SCT050CB SCT100 TX30/2509Z TN13/2601Z TEMPO 2506/2512 08003G08MPS BECMG 2514/2515 16003MPS TEMPO 2514/2524 20003MPS 5000 FU BECMG 2602/2603 02003MPS
UAAA charts
показать схемы
Название сценария Тип сценария Flight Simulator 9 Flight Simulator X Prepar3D v2 Prepar3D v3 Prepar3D v4 xPlane
Recommended scenery for FS9 бесплатный
Recommended scenery for FSX бесплатный


2019 © VATRUS division (Privacy Policy)